createdAt,value
2023-05-10T00:00:24.714Z,10.20
2023-05-10T00:01:56.550Z,10.00
2023-05-10T00:03:28.427Z,10.20
2023-05-10T00:05:00.383Z,10.00
2023-05-10T00:06:32.591Z,9.90
2023-05-10T00:08:04.622Z,11.10
2023-05-10T00:09:36.486Z,10.80
2023-05-10T00:11:08.265Z,11.00
2023-05-10T00:12:40.022Z,12.90
2023-05-10T00:14:13.047Z,11.00
2023-05-10T00:15:44.726Z,11.30
2023-05-10T00:17:16.538Z,13.90
2023-05-10T00:18:48.316Z,10.20
2023-05-10T00:20:20.092Z,10.80
2023-05-10T00:21:52.006Z,11.80
2023-05-10T00:23:23.689Z,11.20
2023-05-10T00:24:58.777Z,9.00
2023-05-10T00:26:30.573Z,10.60
2023-05-10T00:28:02.788Z,10.00
2023-05-10T00:29:34.986Z,8.60
2023-05-10T00:31:06.787Z,11.40
2023-05-10T00:32:38.523Z,12.00
2023-05-10T00:34:10.419Z,12.00
2023-05-10T00:35:42.268Z,12.40
2023-05-10T00:37:14.657Z,10.90
2023-05-10T00:38:46.712Z,9.70
2023-05-10T00:40:18.697Z,9.40
2023-05-10T00:41:52.871Z,10.30
2023-05-10T00:43:24.670Z,9.50
2023-05-10T00:44:56.587Z,10.10
2023-05-10T00:46:29.143Z,10.90
2023-05-10T00:48:04.756Z,10.20
2023-05-10T00:49:37.725Z,10.30
2023-05-10T00:51:09.967Z,11.40
2023-05-10T00:52:43.894Z,11.40
2023-05-10T00:54:16.720Z,10.10
2023-05-10T00:55:48.592Z,10.30
2023-05-10T00:57:21.047Z,11.70
2023-05-10T00:58:52.867Z,11.00
2023-05-10T01:00:24.666Z,8.80
2023-05-10T01:01:59.091Z,9.80
2023-05-10T01:03:31.625Z,12.20
2023-05-10T01:05:04.746Z,11.90
2023-05-10T01:06:36.673Z,11.00
2023-05-10T01:08:09.605Z,11.20
2023-05-10T01:09:41.494Z,9.80
2023-05-10T01:11:13.257Z,11.10
2023-05-10T01:12:48.117Z,12.60
2023-05-10T01:14:21.471Z,13.70
2023-05-10T01:15:53.809Z,11.30
2023-05-10T01:17:26.523Z,11.50
2023-05-10T01:18:58.504Z,12.50
2023-05-10T01:20:41.643Z,13.50
2023-05-10T01:22:54.888Z,11.90
2023-05-10T01:24:58.583Z,10.60
2023-05-10T01:27:28.904Z,10.60
2023-05-10T01:29:30.894Z,9.80
2023-05-10T01:31:43.272Z,9.20
2023-05-10T01:33:37.011Z,9.40
2023-05-10T01:35:37.392Z,9.60
2023-05-10T01:37:18.959Z,7.60
2023-05-10T01:38:58.326Z,8.50
2023-05-10T01:40:44.000Z,8.60
2023-05-10T01:42:22.792Z,9.60
2023-05-10T01:44:36.965Z,9.60
2023-05-10T01:46:19.039Z,8.60
2023-05-10T01:48:15.117Z,8.40
2023-05-10T01:49:52.863Z,9.20
2023-05-10T01:51:30.310Z,9.70
2023-05-10T01:53:04.548Z,7.80
2023-05-10T01:54:42.561Z,8.10
2023-05-10T01:56:16.695Z,15.00
2023-05-10T01:57:58.009Z,8.00
2023-05-10T01:59:40.094Z,9.10
2023-05-10T02:01:14.553Z,8.20
2023-05-10T02:02:49.627Z,7.90
2023-05-10T02:04:25.659Z,8.70
2023-05-10T02:05:59.087Z,9.00
2023-05-10T02:07:34.231Z,9.30
2023-05-10T02:09:08.944Z,8.50
2023-05-10T02:10:42.805Z,8.80
2023-05-10T02:12:16.489Z,9.50
2023-05-10T02:13:51.479Z,11.20
2023-05-10T02:15:25.742Z,7.80
2023-05-10T02:17:00.481Z,8.70
2023-05-10T02:18:35.795Z,7.50
2023-05-10T02:20:11.304Z,10.20
2023-05-10T02:21:45.750Z,9.80
2023-05-10T02:23:19.240Z,8.60
2023-05-10T02:24:52.066Z,10.70
2023-05-10T02:26:26.222Z,8.70
2023-05-10T02:28:01.038Z,11.10
2023-05-10T02:29:34.818Z,9.30
2023-05-10T02:31:07.968Z,9.50
2023-05-10T02:32:41.061Z,10.00
2023-05-10T02:34:14.681Z,9.60
2023-05-10T02:35:48.097Z,9.80
2023-05-10T02:37:22.686Z,10.70
2023-05-10T02:38:55.172Z,10.40
2023-05-10T02:40:29.594Z,9.70
2023-05-10T02:42:03.299Z,11.80
2023-05-10T02:43:36.793Z,10.00
2023-05-10T02:45:14.134Z,10.50
2023-05-10T02:46:48.880Z,13.30
2023-05-10T02:48:20.672Z,10.00
2023-05-10T02:49:54.172Z,12.30
2023-05-10T02:51:32.587Z,10.80
2023-05-10T02:53:12.610Z,11.20
2023-05-10T02:54:53.293Z,10.20
2023-05-10T02:56:40.970Z,11.70
2023-05-10T02:58:12.767Z,11.10
2023-05-10T02:59:45.962Z,11.20
2023-05-10T03:01:17.930Z,12.50
2023-05-10T03:02:49.827Z,11.30
2023-05-10T03:04:21.891Z,12.60
2023-05-10T03:05:56.724Z,11.90
2023-05-10T03:07:28.563Z,12.80
2023-05-10T03:09:00.931Z,11.40
2023-05-10T03:10:39.141Z,14.00
2023-05-10T03:13:27.661Z,12.30
2023-05-10T03:15:51.685Z,12.60
2023-05-10T03:17:31.864Z,16.10
2023-05-10T03:19:22.029Z,13.20
2023-05-10T03:21:08.107Z,13.80
2023-05-10T03:22:50.794Z,13.00
2023-05-10T03:24:28.387Z,15.50
2023-05-10T03:26:02.750Z,13.70
2023-05-10T03:27:39.895Z,14.40
2023-05-10T03:29:15.180Z,16.20
2023-05-10T03:30:48.079Z,15.90
2023-05-10T03:32:20.214Z,17.20
2023-05-10T03:33:53.696Z,16.00
2023-05-10T03:35:30.445Z,19.40
2023-05-10T03:37:02.282Z,15.30
2023-05-10T03:38:35.498Z,15.80
2023-05-10T03:40:09.480Z,17.90
2023-05-10T03:41:42.588Z,15.60
2023-05-10T03:43:14.374Z,16.30
2023-05-10T03:44:46.247Z,17.30
2023-05-10T03:46:18.167Z,19.40
2023-05-10T03:47:50.229Z,15.00
2023-05-10T03:49:22.015Z,17.00
2023-05-10T03:50:53.744Z,19.60
2023-05-10T03:52:25.515Z,16.50
2023-05-10T03:53:57.793Z,16.50
2023-05-10T03:55:30.405Z,19.60
2023-05-10T03:57:02.184Z,19.10
2023-05-10T03:58:36.250Z,19.50
2023-05-10T04:00:09.190Z,17.20
2023-05-10T04:01:46.967Z,17.10
2023-05-10T04:03:19.389Z,20.80
2023-05-10T04:04:51.689Z,18.80
2023-05-10T04:06:23.499Z,17.60
2023-05-10T04:07:56.435Z,18.20
2023-05-10T04:09:28.210Z,20.90
2023-05-10T04:11:10.606Z,18.60
2023-05-10T04:12:42.664Z,17.90
2023-05-10T04:14:14.402Z,18.40
2023-05-10T04:15:46.341Z,16.80
2023-05-10T04:17:18.160Z,23.00
2023-05-10T04:18:50.197Z,20.80
2023-05-10T04:20:21.894Z,18.70
2023-05-10T04:21:54.737Z,19.60
2023-05-10T04:23:26.914Z,22.30
2023-05-10T04:24:58.590Z,21.10
2023-05-10T04:26:30.503Z,21.90
2023-05-10T04:28:02.203Z,24.00
2023-05-10T04:29:33.966Z,22.00
2023-05-10T04:31:09.055Z,21.80
2023-05-10T04:32:40.907Z,22.90
2023-05-10T04:34:12.757Z,23.30
2023-05-10T04:35:45.684Z,20.00
2023-05-10T04:37:18.097Z,21.70
2023-05-10T04:38:49.806Z,21.90
2023-05-10T04:40:21.669Z,24.80
2023-05-10T04:41:53.976Z,22.60
2023-05-10T04:43:25.719Z,25.30
2023-05-10T04:44:57.539Z,25.50
2023-05-10T04:46:29.368Z,25.20
2023-05-10T04:48:01.189Z,24.40
2023-05-10T04:49:33.252Z,23.90
2023-05-10T04:51:05.069Z,27.60
2023-05-10T04:52:37.541Z,23.30
2023-05-10T04:54:09.512Z,25.20
2023-05-10T04:55:41.554Z,26.40
2023-05-10T04:57:13.324Z,26.60
2023-05-10T04:58:45.071Z,28.50
2023-05-10T05:00:17.765Z,29.40
2023-05-10T05:01:49.925Z,26.90
2023-05-10T05:03:21.958Z,29.10
2023-05-10T05:04:53.653Z,33.60
2023-05-10T05:06:26.109Z,31.30
2023-05-10T05:07:57.861Z,29.60
2023-05-10T05:09:29.638Z,34.10
2023-05-10T05:11:01.527Z,31.80
2023-05-10T05:12:33.232Z,39.10
2023-05-10T05:14:05.003Z,33.10
2023-05-10T05:15:36.806Z,38.00
2023-05-10T05:17:09.270Z,33.90
2023-05-10T05:18:41.157Z,34.90
2023-05-10T05:20:14.075Z,33.30
2023-05-10T05:21:45.859Z,41.70
2023-05-10T05:23:17.884Z,38.80
2023-05-10T05:24:49.676Z,42.60
2023-05-10T05:26:22.335Z,37.90
2023-05-10T05:27:54.122Z,41.80
2023-05-10T05:29:25.874Z,35.00
2023-05-10T05:30:57.729Z,37.80
2023-05-10T05:32:29.873Z,35.90
2023-05-10T05:34:02.351Z,40.30
2023-05-10T05:35:35.185Z,44.30
2023-05-10T05:37:07.790Z,37.10
2023-05-10T05:38:41.096Z,38.00
2023-05-10T05:40:15.781Z,38.90
2023-05-10T05:41:48.490Z,38.50
2023-05-10T05:43:20.334Z,40.20
2023-05-10T05:44:52.226Z,40.00
2023-05-10T05:46:23.994Z,41.60
2023-05-10T05:47:55.989Z,43.90
2023-05-10T05:49:27.779Z,36.70
2023-05-10T05:50:59.754Z,37.60
2023-05-10T05:52:31.688Z,38.90
2023-05-10T05:54:05.240Z,44.90
2023-05-10T05:55:37.034Z,36.20
2023-05-10T05:57:08.901Z,39.60
2023-05-10T05:58:40.811Z,39.90
2023-05-10T06:00:13.404Z,42.20
2023-05-10T06:01:45.494Z,40.30
2023-05-10T06:03:17.642Z,39.90
2023-05-10T06:04:49.419Z,41.80
2023-05-10T06:06:21.139Z,39.70
2023-05-10T06:07:52.991Z,43.50
2023-05-10T06:09:25.551Z,37.20
2023-05-10T06:10:57.376Z,43.60
2023-05-10T06:12:29.146Z,43.50
2023-05-10T06:14:01.963Z,42.10
2023-05-10T06:15:33.789Z,42.90
2023-05-10T06:17:06.160Z,40.20
2023-05-10T06:18:38.374Z,41.00
2023-05-10T06:20:10.949Z,35.10
2023-05-10T06:21:42.792Z,38.70
2023-05-10T06:23:14.579Z,36.80
2023-05-10T06:24:46.295Z,41.30
2023-05-10T06:26:18.382Z,37.90
2023-05-10T06:27:53.586Z,41.90
2023-05-10T06:29:25.799Z,39.70
2023-05-10T06:30:57.519Z,44.80
2023-05-10T06:32:29.637Z,42.20
2023-05-10T06:34:01.604Z,42.90
2023-05-10T06:35:34.412Z,42.50
2023-05-10T06:37:06.352Z,38.30
2023-05-10T06:38:38.304Z,42.70
2023-05-10T06:40:10.726Z,38.10
2023-05-10T06:41:42.995Z,38.20
2023-05-10T06:43:14.946Z,39.30
2023-05-10T06:44:46.790Z,40.50
2023-05-10T06:46:18.746Z,38.10
2023-05-10T06:47:50.706Z,37.50
2023-05-10T06:49:23.032Z,32.10
2023-05-10T06:50:54.894Z,37.70
2023-05-10T06:52:26.572Z,35.70
2023-05-10T06:53:58.332Z,33.20
2023-05-10T06:55:30.325Z,33.20
2023-05-10T06:57:08.808Z,33.90
2023-05-10T06:58:44.983Z,35.40
2023-05-10T07:00:18.225Z,34.80
2023-05-10T07:01:50.325Z,31.80
2023-05-10T07:03:22.213Z,34.10
2023-05-10T07:04:54.240Z,30.30
2023-05-10T07:06:33.289Z,33.70
2023-05-10T07:08:05.610Z,32.40
2023-05-10T07:09:37.460Z,32.80
2023-05-10T07:11:09.265Z,31.60
2023-05-10T07:12:41.194Z,36.30
2023-05-10T07:14:12.998Z,33.60
2023-05-10T07:15:45.749Z,35.10
2023-05-10T07:17:17.552Z,31.90
2023-05-10T07:18:49.471Z,36.10
2023-05-10T07:20:21.341Z,35.10
2023-05-10T07:21:53.118Z,37.80
2023-05-10T07:23:24.928Z,31.50
2023-05-10T07:24:56.672Z,31.40
2023-05-10T07:26:28.339Z,33.20
2023-05-10T07:28:00.243Z,32.10
2023-05-10T07:29:32.149Z,34.40
2023-05-10T07:31:04.158Z,35.20
2023-05-10T07:32:36.124Z,33.70
2023-05-10T07:34:07.883Z,33.90
2023-05-10T07:35:39.878Z,35.80
2023-05-10T07:37:11.640Z,33.60
2023-05-10T07:38:43.436Z,33.40
2023-05-10T07:40:15.148Z,35.00
2023-05-10T07:41:49.682Z,30.90
2023-05-10T07:43:21.476Z,38.50
2023-05-10T07:44:53.181Z,39.00
2023-05-10T07:46:24.979Z,35.40
2023-05-10T07:47:56.875Z,36.70
2023-05-10T07:49:28.844Z,31.60
2023-05-10T07:51:00.612Z,31.60
2023-05-10T07:52:32.368Z,30.50
2023-05-10T07:54:04.281Z,30.80
2023-05-10T07:55:36.038Z,33.90
2023-05-10T07:57:07.740Z,30.30
2023-05-10T07:58:39.396Z,34.10
2023-05-10T08:00:14.640Z,33.60
2023-05-10T08:01:46.961Z,37.40
2023-05-10T08:03:18.880Z,29.80
2023-05-10T08:04:50.752Z,30.20
2023-05-10T08:06:23.092Z,33.30
2023-05-10T08:07:54.985Z,33.30
2023-05-10T08:09:26.890Z,36.40
2023-05-10T08:10:58.581Z,31.20
2023-05-10T08:12:30.372Z,36.60
2023-05-10T08:14:02.589Z,36.30
2023-05-10T08:15:34.374Z,34.60
2023-05-10T08:17:06.245Z,31.50
2023-05-10T08:18:39.594Z,34.90
2023-05-10T08:20:13.861Z,31.40
2023-05-10T08:21:46.865Z,29.70
2023-05-10T08:23:18.730Z,29.00
2023-05-10T08:24:50.524Z,28.10
2023-05-10T08:26:22.588Z,29.70
2023-05-10T08:27:54.412Z,28.30
2023-05-10T08:29:26.820Z,27.70
2023-05-10T08:31:00.468Z,32.50
2023-05-10T08:32:32.461Z,34.20
2023-05-10T08:34:04.225Z,29.30
2023-05-10T08:35:36.116Z,29.20
2023-05-10T08:37:08.337Z,29.00
2023-05-10T08:38:40.330Z,29.30
2023-05-10T08:40:13.331Z,30.70
2023-05-10T08:41:48.983Z,28.90
2023-05-10T08:43:21.007Z,27.40
2023-05-10T08:44:54.966Z,27.70
2023-05-10T08:46:29.453Z,26.00
2023-05-10T08:48:05.933Z,27.30
2023-05-10T08:49:38.876Z,31.50
2023-05-10T08:51:15.956Z,26.50
2023-05-10T08:52:53.276Z,27.70
2023-05-10T08:54:25.402Z,25.70
2023-05-10T08:55:57.930Z,26.70
2023-05-10T08:57:29.808Z,23.10
2023-05-10T08:59:02.050Z,26.10
2023-05-10T09:00:35.347Z,23.00
2023-05-10T09:02:08.351Z,22.20
2023-05-10T09:03:41.078Z,19.00
2023-05-10T09:05:13.647Z,23.10
2023-05-10T09:06:45.569Z,22.00
2023-05-10T09:08:18.598Z,18.80
2023-05-10T09:09:51.683Z,20.70
2023-05-10T09:11:23.902Z,21.70
2023-05-10T09:12:59.314Z,17.40
2023-05-10T09:14:35.117Z,19.60
2023-05-10T09:16:20.411Z,18.80
2023-05-10T09:17:53.807Z,20.70
2023-05-10T09:19:25.739Z,22.20
2023-05-10T09:20:57.562Z,21.60
2023-05-10T09:22:29.349Z,20.60
2023-05-10T09:24:06.137Z,18.90
2023-05-10T09:25:39.558Z,20.40
2023-05-10T09:27:11.573Z,22.20
2023-05-10T09:28:59.631Z,19.00
2023-05-10T09:30:32.496Z,18.50
2023-05-10T09:32:04.484Z,17.10
2023-05-10T09:33:46.897Z,18.20
2023-05-10T09:35:24.646Z,17.50
2023-05-10T09:37:03.867Z,19.50
2023-05-10T09:38:55.229Z,18.00
2023-05-10T09:40:30.321Z,17.80
2023-05-10T09:42:10.219Z,16.70
2023-05-10T09:43:43.979Z,20.90
2023-05-10T09:45:16.030Z,14.30
2023-05-10T09:46:53.733Z,18.90
2023-05-10T09:48:26.134Z,16.90
2023-05-10T09:50:03.961Z,19.10
2023-05-10T09:51:37.029Z,17.30
2023-05-10T09:53:09.007Z,19.50
2023-05-10T09:54:54.652Z,17.80
2023-05-10T09:56:38.515Z,19.70
2023-05-10T09:58:13.274Z,19.90
2023-05-10T09:59:45.461Z,17.90
2023-05-10T10:01:17.789Z,19.80
2023-05-10T10:03:00.393Z,17.50
2023-05-10T10:04:32.712Z,13.70
2023-05-10T10:06:18.688Z,16.00
2023-05-10T10:07:59.999Z,15.00
2023-05-10T10:09:32.953Z,19.70
2023-05-10T10:11:04.941Z,18.00
2023-05-10T10:12:36.751Z,18.50
2023-05-10T10:14:08.537Z,20.80
2023-05-10T10:15:40.670Z,20.00
2023-05-10T10:17:13.998Z,20.00
2023-05-10T10:18:45.980Z,21.30
2023-05-10T10:20:21.162Z,23.80
2023-05-10T10:21:53.076Z,25.00
2023-05-10T10:23:25.050Z,29.30
2023-05-10T10:24:56.859Z,26.90
2023-05-10T10:26:28.963Z,24.90
2023-05-10T10:28:37.904Z,26.70
2023-05-10T10:30:47.142Z,24.40
2023-05-10T10:32:44.970Z,23.50
2023-05-10T10:34:31.594Z,22.50
2023-05-10T10:36:05.266Z,23.10
2023-05-10T10:37:48.898Z,21.80
2023-05-10T10:39:21.714Z,22.00
2023-05-10T10:41:52.577Z,22.90
2023-05-10T10:43:26.528Z,22.90
2023-05-10T10:45:14.767Z,21.80
2023-05-10T10:47:24.029Z,20.30
2023-05-10T10:49:11.636Z,20.80
2023-05-10T10:50:47.792Z,19.90
2023-05-10T10:52:37.363Z,18.10
2023-05-10T10:54:13.036Z,19.40
2023-05-10T10:55:49.665Z,16.00
2023-05-10T10:57:25.002Z,19.20
2023-05-10T10:59:00.876Z,16.30
2023-05-10T11:00:38.251Z,16.10
2023-05-10T11:02:10.733Z,18.10
2023-05-10T11:04:18.481Z,20.10
2023-05-10T11:05:52.956Z,15.10
2023-05-10T11:07:25.582Z,18.90
2023-05-10T11:08:57.356Z,17.30
2023-05-10T11:10:29.780Z,16.30
2023-05-10T11:12:09.444Z,16.10
2023-05-10T11:13:42.513Z,18.30
2023-05-10T11:15:14.541Z,20.50
2023-05-10T11:16:46.952Z,21.70
2023-05-10T11:18:25.449Z,20.50
2023-05-10T11:20:11.490Z,21.30
2023-05-10T11:22:04.811Z,23.80
2023-05-10T11:23:57.195Z,23.40
2023-05-10T11:25:29.440Z,22.00
2023-05-10T11:27:02.087Z,25.10
2023-05-10T11:28:34.433Z,23.70
2023-05-10T11:30:08.818Z,30.70
2023-05-10T11:31:46.348Z,28.40
2023-05-10T11:33:20.566Z,26.60
2023-05-10T11:34:52.449Z,26.80
2023-05-10T11:36:30.615Z,27.00
2023-05-10T11:38:02.614Z,28.40
2023-05-10T11:39:34.662Z,27.20
2023-05-10T11:41:06.528Z,24.10
2023-05-10T11:42:39.225Z,24.50
2023-05-10T11:44:10.990Z,25.20
2023-05-10T11:45:43.520Z,24.30
2023-05-10T11:47:15.432Z,24.80
2023-05-10T11:48:50.937Z,23.10
2023-05-10T11:50:22.870Z,22.90
2023-05-10T11:52:05.022Z,17.70
2023-05-10T11:53:37.120Z,16.30
2023-05-10T11:55:09.002Z,18.50
2023-05-10T11:56:42.157Z,18.50
2023-05-10T11:58:14.035Z,21.10
2023-05-10T11:59:46.655Z,19.10
2023-05-10T12:01:18.855Z,17.40
2023-05-10T12:02:51.145Z,15.90
2023-05-10T12:04:23.583Z,17.10
2023-05-10T12:05:57.388Z,15.70
2023-05-10T12:07:29.270Z,18.70
2023-05-10T12:09:08.592Z,18.40
2023-05-10T12:10:40.968Z,18.00
2023-05-10T12:12:18.727Z,18.40
2023-05-10T12:13:51.269Z,16.40
2023-05-10T12:15:25.574Z,13.90
2023-05-10T12:16:58.682Z,19.40
2023-05-10T12:18:30.750Z,17.60
2023-05-10T12:20:24.855Z,15.40
2023-05-10T12:21:56.707Z,18.70
2023-05-10T12:23:28.618Z,17.30
2023-05-10T12:25:00.733Z,16.10
2023-05-10T12:26:33.797Z,17.70
2023-05-10T12:28:10.162Z,16.40
2023-05-10T12:29:45.475Z,15.80
2023-05-10T12:31:17.470Z,16.80
2023-05-10T12:32:50.734Z,16.20
2023-05-10T12:34:26.799Z,16.40
2023-05-10T12:36:00.473Z,16.00
2023-05-10T12:37:36.860Z,15.20
2023-05-10T12:39:08.551Z,17.00
2023-05-10T12:40:40.310Z,17.90
2023-05-10T12:42:12.924Z,16.50
2023-05-10T12:43:46.529Z,16.00
2023-05-10T12:45:19.538Z,16.80
2023-05-10T12:46:51.331Z,16.10
2023-05-10T12:48:23.569Z,13.20
2023-05-10T12:49:55.456Z,15.80
2023-05-10T12:51:27.260Z,15.50
2023-05-10T12:52:59.091Z,17.60
2023-05-10T12:54:30.994Z,14.90
2023-05-10T12:56:02.966Z,19.00
2023-05-10T12:57:34.772Z,16.30
2023-05-10T12:59:06.630Z,15.60
2023-05-10T13:00:38.950Z,15.70
2023-05-10T13:02:11.256Z,18.30
2023-05-10T13:03:44.126Z,15.90
2023-05-10T13:05:15.988Z,16.30
2023-05-10T13:06:48.206Z,15.20
2023-05-10T13:08:19.936Z,15.50
2023-05-10T13:09:51.720Z,15.70
2023-05-10T13:11:23.422Z,13.60
2023-05-10T13:12:55.184Z,15.40
2023-05-10T13:14:28.053Z,15.70
2023-05-10T13:15:59.848Z,15.00
2023-05-10T13:17:32.221Z,12.60
2023-05-10T13:19:06.138Z,16.20
2023-05-10T13:20:38.238Z,9.80
2023-05-10T13:22:09.927Z,13.70
2023-05-10T13:23:41.628Z,10.90
2023-05-10T13:25:14.214Z,11.20
2023-05-10T13:26:46.579Z,11.00
2023-05-10T13:28:18.317Z,10.90
2023-05-10T13:29:50.134Z,12.60
2023-05-10T13:31:22.259Z,10.70
2023-05-10T13:32:54.065Z,11.70
2023-05-10T13:34:25.934Z,10.10
2023-05-10T13:35:57.709Z,10.60
2023-05-10T13:37:30.417Z,10.60
2023-05-10T13:39:03.894Z,10.80
2023-05-10T13:40:36.958Z,9.80
2023-05-10T13:42:08.709Z,9.70
2023-05-10T13:43:40.690Z,9.30
2023-05-10T13:45:14.168Z,10.10
2023-05-10T13:46:48.862Z,9.70
2023-05-10T13:48:20.657Z,8.70
2023-05-10T13:49:55.535Z,8.70
2023-05-10T13:51:27.222Z,8.40
2023-05-10T13:52:58.947Z,7.80
2023-05-10T13:54:32.531Z,6.60
2023-05-10T13:56:04.462Z,8.10
2023-05-10T13:57:37.171Z,6.70
2023-05-10T13:59:08.974Z,7.80
2023-05-10T14:00:41.209Z,6.20
2023-05-10T14:02:14.193Z,5.80
2023-05-10T14:03:46.434Z,6.30
2023-05-10T14:05:19.931Z,8.20
2023-05-10T14:06:54.152Z,7.70
2023-05-10T14:08:28.049Z,6.10
2023-05-10T14:10:01.914Z,9.40
2023-05-10T14:11:33.704Z,8.20
2023-05-10T14:13:05.648Z,8.20
2023-05-10T14:14:37.469Z,9.30
2023-05-10T14:16:09.499Z,7.50
2023-05-10T14:17:41.418Z,6.70
2023-05-10T14:19:13.287Z,4.80
2023-05-10T14:20:45.061Z,6.90
2023-05-10T14:22:16.860Z,7.20
2023-05-10T14:23:48.757Z,7.00
2023-05-10T14:25:20.753Z,7.90
2023-05-10T14:26:54.924Z,6.80
2023-05-10T14:28:27.203Z,11.10
2023-05-10T14:29:59.076Z,8.90
2023-05-10T14:31:31.497Z,8.50
2023-05-10T14:33:03.992Z,9.30
2023-05-10T14:34:36.116Z,8.20
2023-05-10T14:36:08.446Z,9.90
2023-05-10T14:37:40.258Z,8.30
2023-05-10T14:39:13.803Z,11.60
2023-05-10T14:40:46.090Z,9.90
2023-05-10T14:42:17.901Z,9.80
2023-05-10T14:43:49.653Z,7.60
2023-05-10T14:45:22.362Z,10.70
2023-05-10T14:46:54.121Z,9.20
2023-05-10T14:48:26.013Z,10.20
2023-05-10T14:49:57.897Z,9.40
2023-05-10T14:51:29.807Z,9.00
2023-05-10T14:53:01.824Z,8.80
2023-05-10T14:54:34.608Z,9.60
2023-05-10T14:56:07.004Z,10.70
2023-05-10T14:57:39.095Z,10.30
2023-05-10T14:59:11.079Z,10.30
2023-05-10T15:00:44.472Z,9.20
2023-05-10T15:02:17.323Z,8.90
2023-05-10T15:03:49.736Z,10.20
2023-05-10T15:05:22.744Z,8.60
2023-05-10T15:07:00.254Z,9.10
2023-05-10T15:08:32.108Z,8.50
2023-05-10T15:10:04.806Z,8.00
2023-05-10T15:11:36.813Z,9.40
2023-05-10T15:13:08.614Z,7.70
2023-05-10T15:14:40.539Z,10.60
2023-05-10T15:16:12.234Z,9.30
2023-05-10T15:17:44.520Z,8.20
2023-05-10T15:19:16.403Z,9.80
2023-05-10T15:20:48.179Z,9.00
2023-05-10T15:22:20.133Z,8.90
2023-05-10T15:23:52.364Z,8.40
2023-05-10T15:25:24.747Z,8.60
2023-05-10T15:26:56.665Z,8.20
2023-05-10T15:28:28.476Z,9.10
2023-05-10T15:30:00.753Z,9.00
2023-05-10T15:31:32.780Z,8.00
2023-05-10T15:33:04.582Z,11.20
2023-05-10T15:34:37.214Z,10.80
2023-05-10T15:36:09.207Z,9.10
2023-05-10T15:37:41.057Z,9.60
2023-05-10T15:39:13.071Z,10.10
2023-05-10T15:40:44.773Z,9.70
2023-05-10T15:42:16.985Z,9.70
2023-05-10T15:43:48.867Z,10.70
2023-05-10T15:45:21.283Z,10.90
2023-05-10T15:46:53.206Z,9.60
2023-05-10T15:48:25.125Z,11.00
2023-05-10T15:49:56.984Z,8.90
2023-05-10T15:51:28.888Z,8.50
2023-05-10T15:53:00.712Z,10.20
2023-05-10T15:54:32.523Z,8.50
2023-05-10T15:56:04.941Z,8.40
2023-05-10T15:57:37.040Z,9.20
2023-05-10T15:59:10.650Z,8.50
2023-05-10T16:00:42.471Z,6.70
2023-05-10T16:02:14.581Z,8.90
2023-05-10T16:03:46.515Z,10.40
2023-05-10T16:05:19.097Z,8.70
2023-05-10T16:06:51.107Z,10.90
2023-05-10T16:08:23.016Z,8.70
2023-05-10T16:09:54.914Z,9.60
2023-05-10T16:11:27.027Z,9.10
2023-05-10T16:12:59.341Z,9.40
2023-05-10T16:14:31.145Z,9.50
2023-05-10T16:16:02.983Z,9.70
2023-05-10T16:17:34.725Z,7.40
2023-05-10T16:19:06.607Z,8.00
2023-05-10T16:20:38.881Z,9.80
2023-05-10T16:22:10.656Z,9.40
2023-05-10T16:23:43.247Z,9.50
2023-05-10T16:25:15.493Z,7.80
2023-05-10T16:26:47.658Z,9.00
2023-05-10T16:28:21.198Z,8.80
2023-05-10T16:29:53.106Z,8.70
2023-05-10T16:31:25.012Z,10.60
2023-05-10T16:32:58.206Z,8.40
2023-05-10T16:34:30.076Z,8.80
2023-05-10T16:36:01.854Z,11.20
2023-05-10T16:37:33.754Z,10.70
2023-05-10T16:39:05.747Z,10.70
2023-05-10T16:40:37.590Z,7.40
2023-05-10T16:42:09.323Z,10.20
2023-05-10T16:43:41.121Z,9.60
2023-05-10T16:45:13.217Z,8.70
2023-05-10T16:46:45.663Z,9.20
2023-05-10T16:48:17.452Z,8.20
2023-05-10T16:49:49.320Z,11.20
2023-05-10T16:51:21.465Z,9.60
2023-05-10T16:52:53.226Z,8.50
2023-05-10T16:54:25.133Z,7.50
2023-05-10T16:55:57.551Z,11.40
2023-05-10T16:57:29.510Z,11.10
2023-05-10T16:59:01.590Z,10.10
2023-05-10T17:00:33.675Z,10.10
2023-05-10T17:02:05.572Z,10.50
2023-05-10T17:03:37.635Z,11.30
2023-05-10T17:05:09.990Z,8.60
2023-05-10T17:06:42.188Z,10.30
2023-05-10T17:08:14.301Z,11.70
2023-05-10T17:09:47.163Z,11.10
2023-05-10T17:11:21.143Z,11.70
2023-05-10T17:12:53.686Z,9.70
2023-05-10T17:14:25.487Z,11.30
2023-05-10T17:15:57.497Z,10.50
2023-05-10T17:17:29.608Z,12.80
2023-05-10T17:19:01.442Z,13.40
2023-05-10T17:20:34.058Z,13.60
2023-05-10T17:22:06.024Z,12.10
2023-05-10T17:23:37.868Z,12.70
2023-05-10T17:25:10.678Z,14.20
2023-05-10T17:26:42.487Z,13.70
2023-05-10T17:28:14.440Z,14.20
2023-05-10T17:29:46.225Z,14.20
2023-05-10T17:31:18.606Z,16.00
2023-05-10T17:32:50.584Z,15.90
2023-05-10T17:34:22.722Z,17.80
2023-05-10T17:35:56.575Z,15.50
2023-05-10T17:37:28.390Z,15.60
2023-05-10T17:39:00.956Z,14.30
2023-05-10T17:40:33.243Z,15.40
2023-05-10T17:42:05.656Z,11.30
2023-05-10T17:43:37.534Z,14.30
2023-05-10T17:45:10.924Z,12.70
2023-05-10T17:46:42.711Z,12.70
2023-05-10T17:48:14.529Z,11.60
2023-05-10T17:49:46.340Z,13.80
2023-05-10T17:51:20.394Z,12.80
2023-05-10T17:52:52.384Z,12.90
2023-05-10T17:54:24.253Z,12.60
2023-05-10T17:56:01.267Z,14.40
2023-05-10T17:57:33.400Z,12.20
2023-05-10T17:59:05.658Z,14.00
2023-05-10T18:00:38.023Z,12.60
2023-05-10T18:02:09.903Z,12.90
2023-05-10T18:03:41.634Z,11.30
2023-05-10T18:05:13.714Z,12.60
2023-05-10T18:06:45.548Z,12.40
2023-05-10T18:08:22.525Z,13.80
2023-05-10T18:09:54.286Z,12.80
2023-05-10T18:11:26.353Z,13.50
2023-05-10T18:13:02.491Z,14.70
2023-05-10T18:14:40.595Z,15.30
2023-05-10T18:16:13.428Z,13.00
2023-05-10T18:17:45.478Z,17.40
2023-05-10T18:19:17.460Z,13.40
2023-05-10T18:20:53.108Z,14.90
2023-05-10T18:22:25.074Z,13.10
2023-05-10T18:23:57.155Z,13.10
2023-05-10T18:25:29.141Z,14.30
2023-05-10T18:27:01.395Z,14.60
2023-05-10T18:28:33.236Z,11.50
2023-05-10T18:30:06.625Z,14.70
2023-05-10T18:31:38.372Z,13.30
2023-05-10T18:33:12.232Z,10.80
2023-05-10T18:34:45.431Z,12.40
2023-05-10T18:36:17.454Z,13.20
2023-05-10T18:37:49.547Z,13.00
2023-05-10T18:39:21.522Z,12.70
2023-05-10T18:40:54.241Z,12.70
2023-05-10T18:42:27.453Z,10.10
2023-05-10T18:43:59.331Z,14.00
2023-05-10T18:45:32.289Z,12.00
2023-05-10T18:47:05.563Z,13.80
2023-05-10T18:48:38.809Z,14.30
2023-05-10T18:50:11.433Z,12.30
2023-05-10T18:51:43.251Z,12.70
2023-05-10T18:53:15.877Z,11.10
2023-05-10T18:54:49.328Z,13.90
2023-05-10T18:56:22.466Z,12.70
2023-05-10T18:57:55.860Z,9.20
2023-05-10T18:59:28.241Z,11.90
2023-05-10T19:01:00.197Z,12.40
2023-05-10T19:02:32.120Z,10.30
2023-05-10T19:04:04.087Z,12.80
2023-05-10T19:05:36.177Z,12.90
2023-05-10T19:07:07.903Z,11.50
2023-05-10T19:08:39.846Z,10.80
2023-05-10T19:10:13.254Z,12.80
2023-05-10T19:11:45.180Z,11.80
2023-05-10T19:13:17.588Z,12.00
2023-05-10T19:14:49.630Z,13.20
2023-05-10T19:16:23.855Z,11.20
2023-05-10T19:17:59.529Z,14.40
2023-05-10T19:19:33.400Z,13.00
2023-05-10T19:21:07.591Z,10.90
2023-05-10T19:22:54.247Z,11.80
2023-05-10T19:24:37.408Z,12.10
2023-05-10T19:26:11.730Z,11.90
2023-05-10T19:27:47.920Z,12.10
2023-05-10T19:29:20.354Z,12.70
2023-05-10T19:30:52.953Z,11.80
2023-05-10T19:32:26.368Z,11.20
2023-05-10T19:34:01.051Z,10.40
2023-05-10T19:35:33.043Z,10.40
2023-05-10T19:37:04.995Z,10.10
2023-05-10T19:38:39.812Z,11.20
2023-05-10T19:40:18.626Z,12.30
2023-05-10T19:41:53.711Z,12.20
2023-05-10T19:43:33.934Z,10.50
2023-05-10T19:45:09.386Z,9.50
2023-05-10T19:46:44.596Z,11.20
2023-05-10T19:48:17.480Z,10.70
2023-05-10T19:49:49.312Z,10.10
2023-05-10T19:51:22.132Z,10.30
2023-05-10T19:52:54.295Z,12.10
2023-05-10T19:54:26.403Z,12.70
2023-05-10T19:56:07.620Z,14.20
2023-05-10T19:57:39.812Z,12.00
2023-05-10T19:59:11.644Z,10.80
2023-05-10T20:00:44.186Z,12.90
2023-05-10T20:02:16.118Z,12.50
2023-05-10T20:03:48.162Z,10.60
2023-05-10T20:05:21.218Z,10.90
2023-05-10T20:06:53.610Z,12.00
2023-05-10T20:08:26.398Z,11.60
2023-05-10T20:09:59.051Z,12.00
2023-05-10T20:11:31.129Z,10.90
2023-05-10T20:13:03.268Z,11.90
2023-05-10T20:14:35.224Z,10.40
2023-05-10T20:16:07.284Z,9.40
2023-05-10T20:17:39.237Z,9.60
2023-05-10T20:19:12.217Z,10.30
2023-05-10T20:20:44.049Z,14.10